Mount Shasta, California
Current Conditions -  °F | °C
As of 3:56 PM on Friday 21 Nov 2014 (Local Time) from KMHS Reporting Station
Light Rain Light Rain  
Wind Chill: 43°   Ceiling: 4900
Heat Index: 43°   Visibility: 10mi
Dew Point: 39°   Wind: 3mph
Humidity: 86%   Direction: NA
Pressure: 30.01"   Gusts: NA
Location:  41.31°N, 122.31°W
Report Text: KMHS 212356Z AUTO VRB03KT 10SM -RA FEW027 SCT036 OVC049 06/04 A3001 RMK AO2 RAB13 SLP185 P0001 60007 T00610039 10067 20050 56001
Loading
Personal Weather Stations






























Interactive Weather Map New forecast layout! Learn more

10-Day Weather Forecast

Advertisements
Track Severe Weather on mobile